Stewart, Tennessee
Current Conditions -  °F | °C
As of 8:35 PM on Friday 28 Nov 2014 (Local Time) from KPHT Reporting Station
Clear Clear  
Wind Chill: 32°   Ceiling: Unl
Heat Index: 39°   Visibility: 10mi
Dew Point: 27°   Wind: 10mph
Humidity: 61%   Direction: 190°S
Pressure: 30.1"   Gusts: NA
Location:  36.32°N, 87.84°W
Report Text: KPHT 290235Z AUTO 19009KT 10SM CLR 04/M03 A3010 RMK
Loading
Personal Weather Stations






























Interactive Weather Map New forecast layout! Learn more

10-Day Weather Forecast

Advertisements
Track Severe Weather on mobile